sensor_id;sensor_type;location;lat;lon;timestamp;pressure;altitude;pressure_sealevel;temperature;humidity
53011;BME280;42803;55.762;38.084;2023-03-03T00:01:30;98143.53;;;-1.78;100.00
53011;BME280;42803;55.762;38.084;2023-03-03T00:04:01;98137.78;;;-1.76;100.00
53011;BME280;42803;55.762;38.084;2023-03-03T00:06:30;98137.06;;;-1.75;100.00
53011;BME280;42803;55.762;38.084;2023-03-03T00:08:59;98134.22;;;-1.69;100.00
53011;BME280;42803;55.762;38.084;2023-03-03T00:11:28;98131.09;;;-1.58;100.00
53011;BME280;42803;55.762;38.084;2023-03-03T00:13:57;98135.44;;;-1.57;100.00
53011;BME280;42803;55.762;38.084;2023-03-03T00:16:28;98124.50;;;-1.56;100.00
53011;BME280;42803;55.762;38.084;2023-03-03T00:18:58;98125.53;;;-1.54;100.00
53011;BME280;42803;55.762;38.084;2023-03-03T00:21:31;98128.41;;;-1.51;100.00
53011;BME280;42803;55.762;38.084;2023-03-03T00:24:16;98117.28;;;-1.51;100.00
53011;BME280;42803;55.762;38.084;2023-03-03T00:26:46;98118.94;;;-1.52;100.00
53011;BME280;42803;55.762;38.084;2023-03-03T00:29:33;98125.84;;;-1.59;100.00
53011;BME280;42803;55.762;38.084;2023-03-03T00:32:20;98112.88;;;-1.61;100.00
53011;BME280;42803;55.762;38.084;2023-03-03T00:34:51;98109.28;;;-1.63;100.00
53011;BME280;42803;55.762;38.084;2023-03-03T00:37:26;98106.84;;;-1.70;100.00
53011;BME280;42803;55.762;38.084;2023-03-03T00:40:19;98095.41;;;-1.74;100.00
53011;BME280;42803;55.762;38.084;2023-03-03T00:42:52;98098.53;;;-1.76;100.00
53011;BME280;42803;55.762;38.084;2023-03-03T00:45:26;98102.75;;;-1.77;100.00
53011;BME280;42803;55.762;38.084;2023-03-03T00:47:57;98094.03;;;-1.79;100.00
53011;BME280;42803;55.762;38.084;2023-03-03T00:50:31;98091.47;;;-1.79;100.00
53011;BME280;42803;55.762;38.084;2023-03-03T00:53:03;98080.50;;;-1.78;100.00
53011;BME280;42803;55.762;38.084;2023-03-03T00:55:33;98080.81;;;-1.75;100.00
53011;BME280;42803;55.762;38.084;2023-03-03T00:58:03;98075.69;;;-1.75;100.00
53011;BME280;42803;55.762;38.084;2023-03-03T01:00:39;98075.38;;;-1.78;100.00
53011;BME280;42803;55.762;38.084;2023-03-03T01:03:14;98069.94;;;-1.81;100.00
53011;BME280;42803;55.762;38.084;2023-03-03T01:05:44;98067.38;;;-1.81;100.00
53011;BME280;42803;55.762;38.084;2023-03-03T01:08:14;98068.47;;;-1.79;100.00
53011;BME280;42803;55.762;38.084;2023-03-03T01:10:46;98071.47;;;-1.74;100.00
53011;BME280;42803;55.762;38.084;2023-03-03T01:13:19;98065.78;;;-1.72;100.00
53011;BME280;42803;55.762;38.084;2023-03-03T01:15:49;98069.38;;;-1.69;100.00
53011;BME280;42803;55.762;38.084;2023-03-03T01:18:18;98066.38;;;-1.65;100.00
53011;BME280;42803;55.762;38.084;2023-03-03T01:20:47;98057.34;;;-1.62;100.00
53011;BME280;42803;55.762;38.084;2023-03-03T01:23:18;98057.66;;;-1.59;100.00
53011;BME280;42803;55.762;38.084;2023-03-03T01:25:47;98059.63;;;-1.56;100.00
53011;BME280;42803;55.762;38.084;2023-03-03T01:28:16;98057.34;;;-1.53;100.00
53011;BME280;42803;55.762;38.084;2023-03-03T01:30:45;98049.84;;;-1.52;100.00
53011;BME280;42803;55.762;38.084;2023-03-03T01:33:14;98051.78;;;-1.49;100.00
53011;BME280;42803;55.762;38.084;2023-03-03T01:35:45;98050.88;;;-1.50;100.00
53011;BME280;42803;55.762;38.084;2023-03-03T01:38:14;98047.75;;;-1.47;100.00
53011;BME280;42803;55.762;38.084;2023-03-03T01:40:51;98042.03;;;-1.44;100.00
53011;BME280;42803;55.762;38.084;2023-03-03T01:43:21;98037.19;;;-1.41;100.00
53011;BME280;42803;55.762;38.084;2023-03-03T01:49:06;98038.56;;;-1.36;100.00
53011;BME280;42803;55.762;38.084;2023-03-03T01:51:44;98035.84;;;-1.38;100.00
53011;BME280;42803;55.762;38.084;2023-03-03T01:54:18;98034.22;;;-1.37;100.00
53011;BME280;42803;55.762;38.084;2023-03-03T01:56:51;98032.56;;;-1.37;100.00
53011;BME280;42803;55.762;38.084;2023-03-03T01:59:23;98032.56;;;-1.37;100.00
53011;BME280;42803;55.762;38.084;2023-03-03T02:01:54;98029.69;;;-1.40;100.00
53011;BME280;42803;55.762;38.084;2023-03-03T02:04:23;98038.13;;;-1.41;100.00
53011;BME280;42803;55.762;38.084;2023-03-03T02:06:57;98034.50;;;-1.43;100.00
53011;BME280;42803;55.762;38.084;2023-03-03T02:09:33;98030.91;;;-1.45;100.00
53011;BME280;42803;55.762;38.084;2023-03-03T02:12:13;98027.28;;;-1.47;100.00
53011;BME280;42803;55.762;38.084;2023-03-03T02:14:44;98031.81;;;-1.44;100.00
53011;BME280;42803;55.762;38.084;2023-03-03T02:17:13;98026.69;;;-1.44;100.00
53011;BME280;42803;55.762;38.084;2023-03-03T02:19:51;98017.34;;;-1.44;100.00
53011;BME280;42803;55.762;38.084;2023-03-03T02:22:31;98028.63;;;-1.42;100.00
53011;BME280;42803;55.762;38.084;2023-03-03T02:25:04;98018.38;;;-1.42;100.00
53011;BME280;42803;55.762;38.084;2023-03-03T02:27:37;98014.63;;;-1.37;100.00
53011;BME280;42803;55.762;38.084;2023-03-03T02:30:10;98010.56;;;-1.35;100.00
53011;BME280;42803;55.762;38.084;2023-03-03T02:32:40;97997.63;;;-1.36;100.00
53011;BME280;42803;55.762;38.084;2023-03-03T02:35:27;97998.66;;;-1.34;100.00
53011;BME280;42803;55.762;38.084;2023-03-03T02:38:06;97994.31;;;-1.35;100.00
53011;BME280;42803;55.762;38.084;2023-03-03T02:40:41;97989.31;;;-1.34;100.00
53011;BME280;42803;55.762;38.084;2023-03-03T02:43:14;97987.84;;;-1.32;100.00
53011;BME280;42803;55.762;38.084;2023-03-03T02:45:45;97984.50;;;-1.31;100.00
53011;BME280;42803;55.762;38.084;2023-03-03T02:48:14;97989.34;;;-1.25;100.00
53011;BME280;42803;55.762;38.084;2023-03-03T02:50:44;97978.47;;;-1.23;100.00
53011;BME280;42803;55.762;38.084;2023-03-03T02:53:13;97972.47;;;-1.23;100.00
53011;BME280;42803;55.762;38.084;2023-03-03T02:55:42;97971.56;;;-1.24;100.00
53011;BME280;42803;55.762;38.084;2023-03-03T02:58:12;97964.94;;;-1.21;100.00
53011;BME280;42803;55.762;38.084;2023-03-03T03:00:41;97971.28;;;-1.18;100.00
53011;BME280;42803;55.762;38.084;2023-03-03T03:03:10;97960.84;;;-1.19;100.00
53011;BME280;42803;55.762;38.084;2023-03-03T03:05:39;97968.53;;;-1.19;100.00
53011;BME280;42803;55.762;38.084;2023-03-03T03:08:09;97965.09;;;-1.20;100.00
53011;BME280;42803;55.762;38.084;2023-03-03T03:10:38;97958.31;;;-1.19;100.00
53011;BME280;42803;55.762;38.084;2023-03-03T03:13:07;97966.88;;;-1.19;100.00
53011;BME280;42803;55.762;38.084;2023-03-03T03:15:38;97964.78;;;-1.14;100.00
53011;BME280;42803;55.762;38.084;2023-03-03T03:18:07;97973.38;;;-1.14;100.00
53011;BME280;42803;55.762;38.084;2023-03-03T03:20:38;97971.53;;;-1.15;100.00
53011;BME280;42803;55.762;38.084;2023-03-03T03:23:09;97969.28;;;-1.12;100.00
53011;BME280;42803;55.762;38.084;2023-03-03T03:25:39;97960.69;;;-1.12;100.00
53011;BME280;42803;55.762;38.084;2023-03-03T03:28:18;97970.19;;;-1.11;100.00
53011;BME280;42803;55.762;38.084;2023-03-03T03:30:50;97965.69;;;-1.14;100.00
53011;BME280;42803;55.762;38.084;2023-03-03T03:33:21;97966.41;;;-1.15;100.00
53011;BME280;42803;55.762;38.084;2023-03-03T03:35:51;97957.25;;;-1.13;100.00
53011;BME280;42803;55.762;38.084;2023-03-03T03:38:23;97959.22;;;-1.10;100.00
53011;BME280;42803;55.762;38.084;2023-03-03T03:40:54;97954.97;;;-1.10;100.00
53011;BME280;42803;55.762;38.084;2023-03-03T03:43:23;97946.41;;;-1.10;100.00
53011;BME280;42803;55.762;38.084;2023-03-03T03:45:54;97944.56;;;-1.11;100.00
53011;BME280;42803;55.762;38.084;2023-03-03T03:48:25;97940.22;;;-1.12;100.00
53011;BME280;42803;55.762;38.084;2023-03-03T03:50:54;97942.66;;;-1.14;100.00
53011;BME280;42803;55.762;38.084;2023-03-03T03:53:26;97942.47;;;-1.15;100.00
53011;BME280;42803;55.762;38.084;2023-03-03T03:55:55;97943.53;;;-1.13;100.00
53011;BME280;42803;55.762;38.084;2023-03-03T03:58:24;97943.53;;;-1.13;100.00
53011;BME280;42803;55.762;38.084;2023-03-03T04:01:03;97943.53;;;-1.13;100.00
53011;BME280;42803;55.762;38.084;2023-03-03T04:03:34;97942.47;;;-1.15;100.00
53011;BME280;42803;55.762;38.084;2023-03-03T04:06:08;97929.53;;;-1.17;100.00
53011;BME280;42803;55.762;38.084;2023-03-03T04:08:37;97940.56;;;-1.18;100.00
53011;BME280;42803;55.762;38.084;2023-03-03T04:11:08;97938.72;;;-1.19;100.00
53011;BME280;42803;55.762;38.084;2023-03-03T04:13:37;97936.63;;;-1.14;100.00
53011;BME280;42803;55.762;38.084;2023-03-03T04:16:09;97926.97;;;-1.08;100.00
53011;BME280;42803;55.762;38.084;2023-03-03T04:18:41;97926.78;;;-1.01;100.00
53011;BME280;42803;55.762;38.084;2023-03-03T04:21:14;97933.41;;;-0.58;100.00
53011;BME280;42803;55.762;38.084;2023-03-03T04:23:45;97924.41;;;-0.63;100.00
53011;BME280;42803;55.762;38.084;2023-03-03T04:26:14;97919.97;;;-0.83;100.00
53011;BME280;42803;55.762;38.084;2023-03-03T04:28:44;97926.16;;;-0.90;100.00
53011;BME280;42803;55.762;38.084;2023-03-03T04:31:14;97916.81;;;-0.89;100.00
53011;BME280;42803;55.762;38.084;2023-03-03T04:33:44;97916.13;;;-1.06;100.00
53011;BME280;42803;55.762;38.084;2023-03-03T04:36:13;97913.84;;;-1.11;100.00
53011;BME280;42803;55.762;38.084;2023-03-03T04:38:42;97928.19;;;-1.13;100.00
53011;BME280;42803;55.762;38.084;2023-03-03T04:41:11;97923.66;;;-1.16;100.00
53011;BME280;42803;55.762;38.084;2023-03-03T04:43:41;97931.50;;;-1.14;100.00
53011;BME280;42803;55.762;38.084;2023-03-03T04:46:12;97926.66;;;-1.11;100.00
53011;BME280;42803;55.762;38.084;2023-03-03T04:48:44;97913.84;;;-1.11;100.00
53011;BME280;42803;55.762;38.084;2023-03-03T04:51:15;97922.16;;;-1.14;100.00
53011;BME280;42803;55.762;38.084;2023-03-03T04:53:45;97919.44;;;-1.15;100.00
53011;BME280;42803;55.762;38.084;2023-03-03T04:56:14;97919.44;;;-1.15;100.00
53011;BME280;42803;55.762;38.084;2023-03-03T04:58:44;97924.56;;;-1.15;100.00
53011;BME280;42803;55.762;38.084;2023-03-03T05:01:13;97923.81;;;-1.14;100.00
53011;BME280;42803;55.762;38.084;2023-03-03T05:03:44;97916.28;;;-1.13;100.00
53011;BME280;42803;55.762;38.084;2023-03-03T05:06:13;97940.53;;;-1.09;100.00
53011;BME280;42803;55.762;38.084;2023-03-03T05:08:45;97924.41;;;-1.08;100.00
53011;BME280;42803;55.762;38.084;2023-03-03T05:11:14;97930.28;;;-1.09;100.00
53011;BME280;42803;55.762;38.084;2023-03-03T05:13:43;97927.13;;;-1.07;100.00
53011;BME280;42803;55.762;38.084;2023-03-03T05:16:12;97924.81;;;-1.04;100.00
53011;BME280;42803;55.762;38.084;2023-03-03T05:18:41;97929.69;;;-1.07;100.00
53011;BME280;42803;55.762;38.084;2023-03-03T05:21:13;97919.88;;;-1.02;100.00
53011;BME280;42803;55.762;38.084;2023-03-03T05:23:42;97927.13;;;-1.07;100.00
53011;BME280;42803;55.762;38.084;2023-03-03T05:26:11;97919.56;;;-1.05;100.00
53011;BME280;42803;55.762;38.084;2023-03-03T05:28:40;97926.66;;;-1.03;100.00
53011;BME280;42803;55.762;38.084;2023-03-03T05:31:09;97923.59;;;-0.90;100.00
53011;BME280;42803;55.762;38.084;2023-03-03T05:33:38;97929.41;;;-0.74;100.00
53011;BME280;42803;55.762;38.084;2023-03-03T05:36:07;97919.97;;;-0.83;100.00
53011;BME280;42803;55.762;38.084;2023-03-03T05:38:37;97928.72;;;-0.90;100.00
53011;BME280;42803;55.762;38.084;2023-03-03T05:41:06;97928.41;;;-0.93;100.00
53011;BME280;42803;55.762;38.084;2023-03-03T05:43:35;97921.81;;;-0.91;100.00
53011;BME280;42803;55.762;38.084;2023-03-03T05:46:05;97930.97;;;-0.93;100.00
53011;BME280;42803;55.762;38.084;2023-03-03T05:48:34;97933.72;;;-0.91;100.00
53011;BME280;42803;55.762;38.084;2023-03-03T05:51:03;97930.50;;;-0.89;100.00
53011;BME280;42803;55.762;38.084;2023-03-03T05:53:32;97933.81;;;-0.81;100.00
53011;BME280;42803;55.762;38.084;2023-03-03T05:56:03;97923.84;;;-0.78;100.00
53011;BME280;42803;55.762;38.084;2023-03-03T05:58:32;97923.69;;;-0.71;100.00
53011;BME280;42803;55.762;38.084;2023-03-03T06:01:01;97928.69;;;-0.72;100.00
53011;BME280;42803;55.762;38.084;2023-03-03T06:03:30;97924.41;;;-0.63;100.00
53011;BME280;42803;55.762;38.084;2023-03-03T06:05:59;97931.44;;;-0.52;100.00
53011;BME280;42803;55.762;38.084;2023-03-03T06:08:28;97930.66;;;-0.51;100.00
53011;BME280;42803;55.762;38.084;2023-03-03T06:10:59;97938.06;;;-0.54;100.00
53011;BME280;42803;55.762;38.084;2023-03-03T06:13:30;97937.88;;;-0.47;100.00
53011;BME280;42803;55.762;38.084;2023-03-03T06:15:59;97940.88;;;-0.42;100.00
53011;BME280;42803;55.762;38.084;2023-03-03T06:18:28;97936.69;;;-0.42;100.00
53011;BME280;42803;55.762;38.084;2023-03-03T06:20:57;97938.53;;;-0.31;100.00
53011;BME280;42803;55.762;38.084;2023-03-03T06:23:26;97939.41;;;-0.21;100.00
53011;BME280;42803;55.762;38.084;2023-03-03T06:25:55;97934.13;;;-0.23;100.00
53011;BME280;42803;55.762;38.084;2023-03-03T06:28:24;97944.25;;;-0.25;100.00
53011;BME280;42803;55.762;38.084;2023-03-03T06:30:55;97943.69;;;-0.31;100.00
53011;BME280;42803;55.762;38.084;2023-03-03T06:33:24;97939.38;;;-0.40;100.00
53011;BME280;42803;55.762;38.084;2023-03-03T06:35:54;97940.25;;;-0.40;100.00
53011;BME280;42803;55.762;38.084;2023-03-03T06:38:23;97944.38;;;-0.42;100.00
53011;BME280;42803;55.762;38.084;2023-03-03T06:40:52;97943.31;;;-0.44;100.00
53011;BME280;42803;55.762;38.084;2023-03-03T06:43:21;97935.78;;;-0.51;100.00
53011;BME280;42803;55.762;38.084;2023-03-03T06:45:50;97944.53;;;-0.49;100.00
53011;BME280;42803;55.762;38.084;2023-03-03T06:48:21;97933.22;;;-0.51;100.00
53011;BME280;42803;55.762;38.084;2023-03-03T06:50:50;97937.47;;;-0.52;100.00
53011;BME280;42803;55.762;38.084;2023-03-03T06:53:20;97943.78;;;-0.48;100.00
53011;BME280;42803;55.762;38.084;2023-03-03T06:55:49;97937.13;;;-0.46;100.00
53011;BME280;42803;55.762;38.084;2023-03-03T06:58:20;97938.59;;;-0.39;100.00
53011;BME280;42803;55.762;38.084;2023-03-03T07:00:54;97938.38;;;-0.23;100.00
53011;BME280;42803;55.762;38.084;2023-03-03T07:03:26;97937.75;;;-0.21;100.00
53011;BME280;42803;55.762;38.084;2023-03-03T07:06:01;97932.91;;;-0.18;100.00
53011;BME280;42803;55.762;38.084;2023-03-03T07:08:32;97928.16;;;-0.05;100.00
53011;BME280;42803;55.762;38.084;2023-03-03T07:11:07;97935.22;;;-0.02;100.00
53011;BME280;42803;55.762;38.084;2023-03-03T07:13:43;97922.78;;;-0.16;100.00
53011;BME280;42803;55.762;38.084;2023-03-03T07:16:13;97934.44;;;-0.20;100.00
53011;BME280;42803;55.762;38.084;2023-03-03T07:18:48;97932.53;;;-0.31;100.00
53011;BME280;42803;55.762;38.084;2023-03-03T07:21:20;97938.75;;;-0.38;100.00
53011;BME280;42803;55.762;38.084;2023-03-03T07:23:51;97932.44;;;-0.41;100.00
53011;BME280;42803;55.762;38.084;2023-03-03T07:26:22;97938.94;;;-0.45;100.00
53011;BME280;42803;55.762;38.084;2023-03-03T07:28:55;97934.25;;;-0.40;100.00
53011;BME280;42803;55.762;38.084;2023-03-03T07:31:28;97932.88;;;-0.37;100.00
53011;BME280;42803;55.762;38.084;2023-03-03T07:34:04;97932.16;;;-0.44;100.00
53011;BME280;42803;55.762;38.084;2023-03-03T07:36:42;97940.31;;;-0.48;100.00
53011;BME280;42803;55.762;38.084;2023-03-03T07:39:24;97940.19;;;-0.59;100.00
53011;BME280;42803;55.762;38.084;2023-03-03T07:42:01;97944.91;;;-0.63;100.00
53011;BME280;42803;55.762;38.084;2023-03-03T07:44:36;97948.34;;;-0.63;100.00
53011;BME280;42803;55.762;38.084;2023-03-03T07:47:21;97935.50;;;-0.54;100.00
53011;BME280;42803;55.762;38.084;2023-03-03T07:49:53;97941.34;;;-0.46;100.00
53011;BME280;42803;55.762;38.084;2023-03-03T07:52:26;97942.41;;;-0.44;100.00
53011;BME280;42803;55.762;38.084;2023-03-03T07:54:56;97948.31;;;-0.45;100.00
53011;BME280;42803;55.762;38.084;2023-03-03T07:57:29;97945.97;;;-0.34;100.00
53011;BME280;42803;55.762;38.084;2023-03-03T08:03:19;97950.38;;;-0.41;100.00
53011;BME280;42803;55.762;38.084;2023-03-03T08:05:50;97949.91;;;-0.37;100.00
53011;BME280;42803;55.762;38.084;2023-03-03T08:08:26;97957.22;;;-0.23;100.00
53011;BME280;42803;55.762;38.084;2023-03-03T08:10:58;97960.13;;;-0.29;100.00
53011;BME280;42803;55.762;38.084;2023-03-03T08:13:33;97962.50;;;-0.21;100.00
53011;BME280;42803;55.762;38.084;2023-03-03T08:16:23;97961.88;;;-0.19;100.00
53011;BME280;42803;55.762;38.084;2023-03-03T08:18:53;97969.41;;;-0.20;100.00
53011;BME280;42803;55.762;38.084;2023-03-03T08:21:25;97965.34;;;-0.18;100.00
53011;BME280;42803;55.762;38.084;2023-03-03T08:23:54;97960.69;;;-0.22;100.00
53011;BME280;42803;55.762;38.084;2023-03-03T08:26:24;97959.94;;;-0.21;100.00
53011;BME280;42803;55.762;38.084;2023-03-03T08:28:54;97968.75;;;-0.09;100.00
53011;BME280;42803;55.762;38.084;2023-03-03T08:31:23;97962.78;;;0.09;100.00
53011;BME280;42803;55.762;38.084;2023-03-03T08:34:07;97958.13;;;0.05;100.00
53011;BME280;42803;55.762;38.084;2023-03-03T08:36:37;97963.78;;;0.11;100.00
53011;BME280;42803;55.762;38.084;2023-03-03T08:39:06;97968.25;;;0.22;100.00
53011;BME280;42803;55.762;38.084;2023-03-03T08:41:35;97960.16;;;0.37;100.00
53011;BME280;42803;55.762;38.084;2023-03-03T08:44:05;97963.91;;;0.40;100.00
53011;BME280;42803;55.762;38.084;2023-03-03T08:46:34;97967.31;;;0.31;100.00
53011;BME280;42803;55.762;38.084;2023-03-03T08:49:03;97960.34;;;0.30;100.00
53011;BME280;42803;55.762;38.084;2023-03-03T08:51:32;97953.13;;;0.26;100.00
53011;BME280;42803;55.762;38.084;2023-03-03T08:54:03;97963.75;;;-0.08;100.00
53011;BME280;42803;55.762;38.084;2023-03-03T08:56:32;97967.63;;;-0.21;100.00
53011;BME280;42803;55.762;38.084;2023-03-03T08:59:01;97973.53;;;-0.22;100.00
53011;BME280;42803;55.762;38.084;2023-03-03T09:01:32;97981.63;;;0.10;100.00
53011;BME280;42803;55.762;38.084;2023-03-03T09:04:02;97971.88;;;0.24;100.00
53011;BME280;42803;55.762;38.084;2023-03-03T09:06:33;97975.13;;;0.13;100.00
53011;BME280;42803;55.762;38.084;2023-03-03T09:09:04;97980.38;;;0.15;100.00
53011;BME280;42803;55.762;38.084;2023-03-03T09:11:33;97973.63;;;0.07;100.00
53011;BME280;42803;55.762;38.084;2023-03-03T09:14:06;97973.19;;;0.30;100.00
53011;BME280;42803;55.762;38.084;2023-03-03T09:16:39;97967.56;;;0.71;100.00
53011;BME280;42803;55.762;38.084;2023-03-03T09:19:21;97979.88;;;0.46;100.00
53011;BME280;42803;55.762;38.084;2023-03-03T09:21:51;97972.97;;;0.37;100.00
53011;BME280;42803;55.762;38.084;2023-03-03T09:24:25;97971.59;;;0.21;100.00
53011;BME280;42803;55.762;38.084;2023-03-03T09:26:55;97973.50;;;0.05;100.00
53011;BME280;42803;55.762;38.084;2023-03-03T09:29:27;97979.59;;;-0.03;100.00
53011;BME280;42803;55.762;38.084;2023-03-03T09:31:58;97978.44;;;0.12;100.00
53011;BME280;42803;55.762;38.084;2023-03-03T09:34:37;97978.53;;;-0.05;100.00
53011;BME280;42803;55.762;38.084;2023-03-03T09:37:19;97979.88;;;0.00;100.00
53011;BME280;42803;55.762;38.084;2023-03-03T09:39:52;97978.34;;;0.02;100.00
53011;BME280;42803;55.762;38.084;2023-03-03T09:42:46;97980.81;;;-0.08;100.00
53011;BME280;42803;55.762;38.084;2023-03-03T09:45:49;97983.53;;;-0.07;100.00
53011;BME280;42803;55.762;38.084;2023-03-03T09:48:46;97985.63;;;-0.03;100.00
53011;BME280;42803;55.762;38.084;2023-03-03T09:51:44;97983.84;;;-0.04;100.00
53011;BME280;42803;55.762;38.084;2023-03-03T09:54:31;97983.78;;;0.05;100.00
53011;BME280;42803;55.762;38.084;2023-03-03T09:57:12;97999.72;;;0.11;100.00
53011;BME280;42803;55.762;38.084;2023-03-03T10:00:01;97985.03;;;0.38;100.00
53011;BME280;42803;55.762;38.084;2023-03-03T10:02:49;97971.28;;;0.94;100.00
53011;BME280;42803;55.762;38.084;2023-03-03T10:05:33;97969.56;;;1.42;100.00
53011;BME280;42803;55.762;38.084;2023-03-03T10:08:20;97959.63;;;1.76;100.00
53011;BME280;42803;55.762;38.084;2023-03-03T10:11:09;97965.69;;;1.97;100.00
53011;BME280;42803;55.762;38.084;2023-03-03T10:13:53;97963.09;;;1.77;100.00
53011;BME280;42803;55.762;38.084;2023-03-03T10:16:35;97954.34;;;1.64;99.93
53011;BME280;42803;55.762;38.084;2023-03-03T10:19:14;97955.88;;;1.83;100.00
53011;BME280;42803;55.762;38.084;2023-03-03T10:21:49;97969.63;;;1.63;100.00
53011;BME280;42803;55.762;38.084;2023-03-03T10:24:27;97964.34;;;1.71;100.00
53011;BME280;42803;55.762;38.084;2023-03-03T10:27:11;97973.91;;;1.33;100.00
53011;BME280;42803;55.762;38.084;2023-03-03T10:29:56;97969.59;;;1.13;100.00
53011;BME280;42803;55.762;38.084;2023-03-03T10:32:42;97964.72;;;1.16;100.00
53011;BME280;42803;55.762;38.084;2023-03-03T10:35:50;97975.72;;;1.05;100.00
53011;BME280;42803;55.762;38.084;2023-03-03T10:38:55;97969.84;;;1.16;100.00
53011;BME280;42803;55.762;38.084;2023-03-03T10:41:38;97973.50;;;1.29;100.00
53011;BME280;42803;55.762;38.084;2023-03-03T10:44:26;97975.06;;;1.37;100.00
53011;BME280;42803;55.762;38.084;2023-03-03T10:50:10;97973.16;;;1.44;100.00
53011;BME280;42803;55.762;38.084;2023-03-03T10:52:46;97966.13;;;1.13;100.00
53011;BME280;42803;55.762;38.084;2023-03-03T10:55:25;97979.41;;;1.28;100.00
53011;BME280;42803;55.762;38.084;2023-03-03T10:58:09;97970.06;;;1.38;100.00
53011;BME280;42803;55.762;38.084;2023-03-03T11:00:49;97975.06;;;1.37;100.00
53011;BME280;42803;55.762;38.084;2023-03-03T11:03:32;97969.75;;;1.25;100.00
53011;BME280;42803;55.762;38.084;2023-03-03T11:06:05;97980.06;;;0.96;100.00
53011;BME280;42803;55.762;38.084;2023-03-03T11:08:42;97977.63;;;0.60;100.00
53011;BME280;42803;55.762;38.084;2023-03-03T11:11:16;97985.50;;;0.42;100.00
53011;BME280;42803;55.762;38.084;2023-03-03T11:13:51;97984.09;;;0.46;100.00
53011;BME280;42803;55.762;38.084;2023-03-03T11:16:43;97993.31;;;0.44;100.00
53011;BME280;42803;55.762;38.084;2023-03-03T11:19:36;97988.66;;;0.40;100.00
53011;BME280;42803;55.762;38.084;2023-03-03T11:22:18;97993.94;;;0.41;100.00
53011;BME280;42803;55.762;38.084;2023-03-03T11:24:56;97989.50;;;0.49;100.00
53011;BME280;42803;55.762;38.084;2023-03-03T11:30:36;97980.56;;;0.73;100.00
53011;BME280;42803;55.762;38.084;2023-03-03T11:33:14;97978.69;;;1.10;100.00
53011;BME280;42803;55.762;38.084;2023-03-03T11:35:52;97977.41;;;1.34;100.00
53011;BME280;42803;55.762;38.084;2023-03-03T11:38:36;97976.16;;;1.59;100.00
53011;BME280;42803;55.762;38.084;2023-03-03T11:41:16;97973.91;;;1.73;98.91
53011;BME280;42803;55.762;38.084;2023-03-03T11:43:51;97981.00;;;1.95;96.44
53011;BME280;42803;55.762;38.084;2023-03-03T11:46:24;97978.28;;;1.94;100.00
53011;BME280;42803;55.762;38.084;2023-03-03T11:48:59;97979.28;;;1.65;95.49
53011;BME280;42803;55.762;38.084;2023-03-03T11:51:43;97984.44;;;1.65;100.00
53011;BME280;42803;55.762;38.084;2023-03-03T11:54:20;97978.28;;;1.74;100.00
53011;BME280;42803;55.762;38.084;2023-03-03T11:56:51;97983.69;;;1.77;100.00
53011;BME280;42803;55.762;38.084;2023-03-03T11:59:40;97978.28;;;1.74;95.32
53011;BME280;42803;55.762;38.084;2023-03-03T12:02:25;97984.88;;;1.51;93.22
53011;BME280;42803;55.762;38.084;2023-03-03T12:04:58;97987.06;;;1.46;97.37
53011;BME280;42803;55.762;38.084;2023-03-03T12:07:40;97979.75;;;1.51;100.00
53011;BME280;42803;55.762;38.084;2023-03-03T12:10:23;97981.75;;;1.35;98.62
53011;BME280;42803;55.762;38.084;2023-03-03T12:13:01;97978.34;;;1.26;96.87
53011;BME280;42803;55.762;38.084;2023-03-03T12:15:37;97979.41;;;1.28;100.00
53011;BME280;42803;55.762;38.084;2023-03-03T12:18:23;97978.69;;;1.39;100.00
53011;BME280;42803;55.762;38.084;2023-03-03T12:21:09;97981.72;;;1.25;99.68
53011;BME280;42803;55.762;38.084;2023-03-03T12:23:55;97982.47;;;1.24;96.75
53011;BME280;42803;55.762;38.084;2023-03-03T12:26:36;97986.56;;;1.11;100.00
53011;BME280;42803;55.762;38.084;2023-03-03T12:29:22;97986.28;;;1.08;100.00
53011;BME280;42803;55.762;38.084;2023-03-03T12:32:00;97990.75;;;1.40;100.00
53011;BME280;42803;55.762;38.084;2023-03-03T12:34:36;97985.44;;;1.57;99.95
53011;BME280;42803;55.762;38.084;2023-03-03T12:37:17;97986.50;;;1.40;97.55
53011;BME280;42803;55.762;38.084;2023-03-03T12:39:59;97988.69;;;1.36;100.00
53011;BME280;42803;55.762;38.084;2023-03-03T12:42:40;97992.44;;;1.10;100.00
53011;BME280;42803;55.762;38.084;2023-03-03T12:45:23;97990.31;;;0.96;100.00
53011;BME280;42803;55.762;38.084;2023-03-03T12:47:58;97998.66;;;0.75;100.00
53011;BME280;42803;55.762;38.084;2023-03-03T12:50:37;97992.06;;;0.68;100.00
53011;BME280;42803;55.762;38.084;2023-03-03T12:53:21;97994.00;;;0.70;100.00
53011;BME280;42803;55.762;38.084;2023-03-03T12:55:56;98001.59;;;0.88;100.00
53011;BME280;42803;55.762;38.084;2023-03-03T12:58:39;97992.25;;;0.80;100.00
53011;BME280;42803;55.762;38.084;2023-03-03T13:01:19;98000.25;;;0.83;100.00
53011;BME280;42803;55.762;38.084;2023-03-03T13:03:56;97997.25;;;0.97;100.00
53011;BME280;42803;55.762;38.084;2023-03-03T13:06:30;97997.25;;;0.97;100.00
53011;BME280;42803;55.762;38.084;2023-03-03T13:09:19;97986.97;;;0.97;100.00
53011;BME280;42803;55.762;38.084;2023-03-03T13:12:07;97996.06;;;0.93;100.00
53011;BME280;42803;55.762;38.084;2023-03-03T13:14:48;97993.41;;;0.73;100.00
53011;BME280;42803;55.762;38.084;2023-03-03T13:17:23;98001.31;;;0.47;100.00
53011;BME280;42803;55.762;38.084;2023-03-03T13:19:58;98006.81;;;0.33;100.00
53011;BME280;42803;55.762;38.084;2023-03-03T13:22:36;97994.69;;;0.21;100.00
53011;BME280;42803;55.762;38.084;2023-03-03T13:25:22;98009.31;;;0.22;100.00
53011;BME280;42803;55.762;38.084;2023-03-03T13:28:01;98011.50;;;0.09;100.00
53011;BME280;42803;55.762;38.084;2023-03-03T13:30:34;98010.91;;;0.12;100.00
53011;BME280;42803;55.762;38.084;2023-03-03T13:33:09;98007.63;;;0.04;100.00